Time;durP1;ratioP1;P1;durP2;ratioP2;P2;SDS_P1;SDS_P2;PMS_P1;PMS_P2;Temp;Humidity;BMP_temperature;BMP_pressure;BME280_temperature;BME280_humidity;BME280_pressure;Samples;Min_cycle;Max_cycle;Signal;HPM_P1;HPM_P2
2022/04/15 00:00:45;;;;;;;9.80;3.90;;;;;;;12.31;73.88;100605.45;105975;1271;25549;-62
2022/04/15 00:03:16;;;;;;;11.90;3.30;;;;;;;12.24;74.74;100596.32;106032;1271;22547;-62
2022/04/15 00:05:48;;;;;;;15.80;4.70;;;;;;;12.18;74.05;100595.11;105765;1272;24220;-62
2022/04/15 00:08:19;;;;;;;11.30;4.80;;;;;;;12.17;73.88;100612.23;105700;1271;25410;-63
2022/04/15 00:10:50;;;;;;;10.70;4.10;;;;;;;12.18;74.04;100618.36;105794;1271;25219;-63
2022/04/15 00:13:24;;;;;;;14.40;4.40;;;;;;;12.18;74.20;100618.36;106040;1271;25456;-62
2022/04/15 00:15:55;;;;;;;12.60;4.30;;;;;;;12.16;74.29;100615.23;105811;1271;22922;-63
2022/04/15 00:18:27;;;;;;;11.30;3.90;;;;;;;12.15;74.33;100616.73;105660;1271;22532;-63
2022/04/15 00:20:59;;;;;;;18.50;5.20;;;;;;;12.15;74.62;100614.67;105686;1271;25247;-62
2022/04/15 00:23:31;;;;;;;14.70;4.10;;;;;;;12.14;74.92;100613.98;105658;1271;22549;-63
2022/04/15 00:26:04;;;;;;;17.20;5.60;;;;;;;12.14;74.86;100610.31;105985;1271;24272;-64
2022/04/15 00:28:36;;;;;;;14.20;4.40;;;;;;;12.14;74.74;100604.06;106031;1271;24416;-63
2022/04/15 00:31:07;;;;;;;13.10;3.90;;;;;;;12.16;74.98;100605.30;105945;1271;22532;-63
2022/04/15 00:33:39;;;;;;;16.80;3.80;;;;;;;12.17;74.92;100608.41;105790;1271;22545;-63
2022/04/15 00:36:13;;;;;;;13.40;3.70;;;;;;;12.15;75.11;100614.59;105589;1271;22604;-64
2022/04/15 00:38:45;;;;;;;11.10;3.60;;;;;;;12.13;75.54;100622.75;105782;1271;23092;-63
2022/04/15 00:41:17;;;;;;;12.40;3.90;;;;;;;12.09;75.67;100616.10;105782;1271;22568;-63
2022/04/15 00:43:49;;;;;;;11.60;3.80;;;;;;;12.07;75.86;100612.91;105652;1271;22562;-64
2022/04/15 00:46:20;;;;;;;17.00;4.90;;;;;;;12.06;76.18;100616.15;105732;1271;24248;-64
2022/04/15 00:48:51;;;;;;;17.10;6.00;;;;;;;12.06;76.28;100617.31;105737;1271;22568;-64
2022/04/15 00:51:23;;;;;;;16.10;6.10;;;;;;;12.06;76.44;100622.40;105622;1271;22568;-63
2022/04/15 00:53:56;;;;;;;15.10;5.50;;;;;;;12.04;76.79;100626.65;105643;1271;25250;-65
2022/04/15 00:56:32;;;;;;;15.80;6.50;;;;;;;12.04;76.82;100631.42;105621;1271;25456;-64
2022/04/15 00:59:07;;;;;;;15.30;5.70;;;;;;;12.03;77.33;100629.88;105739;1271;24667;-63
2022/04/15 01:01:41;;;;;;;14.70;5.90;;;;;;;12.01;77.69;100632.65;105653;1271;25543;-63
2022/04/15 01:04:14;;;;;;;17.30;6.30;;;;;;;12.00;77.72;100633.18;105706;1271;22584;-62
2022/04/15 01:06:49;;;;;;;16.00;5.30;;;;;;;12.00;78.05;100630.08;105729;1271;22559;-63
2022/04/15 01:09:24;;;;;;;20.30;6.20;;;;;;;11.99;78.79;100633.63;105624;1271;22525;-63
2022/04/15 01:11:57;;;;;;;17.20;5.20;;;;;;;11.98;78.87;100633.48;105722;1271;22518;-63
2022/04/15 01:14:30;;;;;;;12.00;4.40;;;;;;;11.96;79.06;100638.52;105698;1271;25348;-63
2022/04/15 01:17:01;;;;;;;12.80;4.70;;;;;;;11.93;79.47;100645.96;105736;1271;24399;-63
2022/04/15 01:19:33;;;;;;;14.50;3.70;;;;;;;11.90;79.42;100637.57;105794;1271;25439;-63
2022/04/15 01:22:09;;;;;;;9.50;3.10;;;;;;;11.88;79.60;100633.30;105847;1271;24236;-63
2022/04/15 01:24:40;;;;;;;9.30;2.80;;;;;;;11.85;79.68;100626.42;106081;1271;22571;-61
2022/04/15 01:27:22;;;;;;;9.90;3.20;;;;;;;11.83;80.07;100626.27;105838;1271;22554;-63
2022/04/15 01:29:54;;;;;;;8.70;2.70;;;;;;;11.81;79.83;100623.99;106022;1271;26607;-63
2022/04/15 01:32:26;;;;;;;12.10;2.90;;;;;;;11.80;80.18;100629.31;105650;1272;22575;-62
2022/04/15 01:34:57;;;;;;;8.10;2.60;;;;;;;11.78;80.33;100625.08;105860;1271;24148;-62
2022/04/15 01:37:31;;;;;;;7.30;2.40;;;;;;;11.76;80.59;100622.06;105984;1271;22565;-62
2022/04/15 01:40:04;;;;;;;8.90;2.30;;;;;;;11.74;80.54;100620.90;105897;1271;23353;-63
2022/04/15 01:42:36;;;;;;;10.20;2.40;;;;;;;11.73;80.57;100615.23;106124;1271;22617;-62
2022/04/15 01:45:10;;;;;;;6.60;2.10;;;;;;;11.71;81.00;100619.62;105971;1271;22528;-62
2022/04/15 01:47:42;;;;;;;7.00;1.70;;;;;;;11.69;80.95;100620.80;105668;1271;24356;-62
2022/04/15 01:50:13;;;;;;;6.50;1.80;;;;;;;11.67;81.38;100617.50;105754;1271;24338;-61
2022/04/15 01:52:45;;;;;;;5.60;1.60;;;;;;;11.65;81.27;100626.48;105747;1271;22542;-63
2022/04/15 01:55:16;;;;;;;6.70;1.70;;;;;;;11.62;81.52;100631.57;105819;1271;24449;-63
2022/04/15 01:57:48;;;;;;;7.00;1.80;;;;;;;11.59;81.44;100630.98;105854;1272;22524;-61
2022/04/15 02:00:21;;;;;;;9.40;2.00;;;;;;;11.57;81.62;100633.13;105866;1271;24384;-62
2022/04/15 02:02:55;;;;;;;8.40;2.10;;;;;;;11.55;81.78;100633.44;105709;1272;22528;-63
2022/04/15 02:05:26;;;;;;;8.00;1.70;;;;;;;11.54;81.64;100631.34;105618;1272;22655;-62
2022/04/15 02:07:58;;;;;;;9.70;2.40;;;;;;;11.53;82.00;100639.85;105646;1272;24346;-62
2022/04/15 02:10:29;;;;;;;8.40;2.00;;;;;;;11.51;81.88;100638.04;105719;1272;23359;-62
2022/04/15 02:13:01;;;;;;;8.90;1.80;;;;;;;11.51;82.03;100636.55;105801;1271;22983;-62
2022/04/15 02:15:32;;;;;;;6.30;1.70;;;;;;;11.49;82.03;100638.23;106001;1272;24361;-61
2022/04/15 02:18:04;;;;;;;11.10;2.10;;;;;;;11.46;82.29;100638.60;105998;1273;25263;-63
2022/04/15 02:20:36;;;;;;;5.70;2.00;;;;;;;11.45;82.55;100633.80;105937;1272;22536;-62
2022/04/15 02:23:08;;;;;;;9.40;2.40;;;;;;;11.45;82.39;100633.02;105733;1271;22541;-62
2022/04/15 02:25:40;;;;;;;6.40;1.80;;;;;;;11.44;82.41;100627.88;105834;1271;25377;-62
2022/04/15 02:28:11;;;;;;;10.30;1.80;;;;;;;11.44;82.52;100631.48;105980;1271;22545;-61
2022/04/15 02:30:42;;;;;;;7.80;2.10;;;;;;;11.42;82.72;100627.54;106011;1270;22529;-61
2022/04/15 02:33:14;;;;;;;7.10;2.20;;;;;;;11.41;82.70;100627.75;105835;1271;24267;-62
2022/04/15 02:35:45;;;;;;;7.40;2.10;;;;;;;11.40;82.87;100622.44;105716;1271;22533;-62
2022/04/15 02:38:17;;;;;;;6.30;2.10;;;;;;;11.38;82.64;100616.70;105672;1271;22563;-63
2022/04/15 02:40:48;;;;;;;9.70;2.90;;;;;;;11.38;82.72;100610.71;105610;1271;22604;-62
2022/04/15 02:43:20;;;;;;;7.10;2.10;;;;;;;11.38;82.55;100604.39;105733;1271;24332;-62
2022/04/15 02:45:52;;;;;;;9.40;2.30;;;;;;;11.39;82.64;100604.95;105690;1273;25411;-62
2022/04/15 02:48:24;;;;;;;7.20;2.70;;;;;;;11.39;82.49;100603.02;105701;1271;22567;-61
2022/04/15 02:50:56;;;;;;;8.30;2.40;;;;;;;11.41;82.58;100603.01;105809;1271;22613;-63
2022/04/15 02:53:28;;;;;;;7.30;2.30;;;;;;;11.42;82.45;100599.46;105640;1271;24333;-62
2022/04/15 02:55:59;;;;;;;10.90;2.80;;;;;;;11.40;82.69;100588.81;105930;1271;23329;-62
2022/04/15 02:58:31;;;;;;;8.90;2.50;;;;;;;11.40;82.42;100596.58;105766;1271;22992;-61
2022/04/15 03:01:02;;;;;;;8.30;2.20;;;;;;;11.42;82.69;100599.12;105832;1272;23093;-62
2022/04/15 03:03:34;;;;;;;7.70;2.60;;;;;;;11.41;82.70;100603.48;105712;1271;24324;-62
2022/04/15 03:06:06;;;;;;;9.40;2.90;;;;;;;11.39;82.65;100600.23;105673;1271;22988;-61
2022/04/15 03:08:37;;;;;;;10.00;2.60;;;;;;;11.37;82.62;100601.25;105896;1271;22750;-62
2022/04/15 03:11:10;;;;;;;11.20;2.40;;;;;;;11.35;82.73;100606.08;105849;1271;24387;-62
2022/04/15 03:13:41;;;;;;;8.70;2.50;;;;;;;11.32;82.79;100605.41;105729;1271;22707;-62
2022/04/15 03:16:15;;;;;;;9.60;3.70;;;;;;;11.31;82.85;100605.39;105717;1272;24330;-61
2022/04/15 03:18:46;;;;;;;9.20;3.00;;;;;;;11.30;82.91;100603.63;105800;1271;26524;-62
2022/04/15 03:21:18;;;;;;;9.10;3.40;;;;;;;11.30;82.98;100598.76;105716;1271;25317;-61
2022/04/15 03:23:49;;;;;;;13.10;4.00;;;;;;;11.29;83.01;100601.02;105829;1271;22566;-64
2022/04/15 03:26:21;;;;;;;12.00;4.20;;;;;;;11.27;83.04;100603.73;105741;1272;22528;-63
2022/04/15 03:28:52;;;;;;;10.90;4.20;;;;;;;11.27;83.05;100603.88;105729;1272;22550;-62
2022/04/15 03:31:24;;;;;;;11.90;3.60;;;;;;;11.25;83.41;100604.35;105760;1271;25265;-63
2022/04/15 03:33:56;;;;;;;10.00;3.80;;;;;;;11.23;83.29;100605.02;105757;1273;24217;-62
2022/04/15 03:36:28;;;;;;;11.10;3.70;;;;;;;11.22;83.32;100609.95;105799;1273;25505;-63
2022/04/15 03:39:00;;;;;;;10.20;3.90;;;;;;;11.21;83.52;100610.55;105706;1272;22554;-63
2022/04/15 03:41:31;;;;;;;11.20;3.60;;;;;;;11.19;83.70;100606.54;105727;1271;24738;-61
2022/04/15 03:44:04;;;;;;;9.80;3.40;;;;;;;11.18;83.84;100606.46;105697;1271;22548;-62
2022/04/15 03:46:36;;;;;;;7.90;3.10;;;;;;;11.17;83.79;100609.45;105720;1272;24284;-65
2022/04/15 03:49:07;;;;;;;10.70;3.50;;;;;;;11.16;84.00;100611.20;105800;1272;26430;-62
2022/04/15 03:51:38;;;;;;;8.70;3.20;;;;;;;11.15;84.22;100611.34;106068;1271;23141;-63
2022/04/15 03:54:10;;;;;;;13.00;3.80;;;;;;;11.15;84.05;100611.08;105646;1272;22533;-63
2022/04/15 03:56:41;;;;;;;11.30;4.00;;;;;;;11.15;84.38;100614.93;105808;1272;26281;-63
2022/04/15 03:59:13;;;;;;;16.70;7.00;;;;;;;11.14;84.51;100615.84;105989;1272;25606;-62
2022/04/15 04:01:44;;;;;;;15.80;6.70;;;;;;;11.14;84.69;100616.27;105935;1271;22526;-62
2022/04/15 04:04:16;;;;;;;19.40;8.50;;;;;;;11.13;85.02;100614.39;105868;1271;26522;-62
2022/04/15 04:06:48;;;;;;;20.10;9.10;;;;;;;11.12;85.04;100610.10;105698;1271;23548;-62
2022/04/15 04:09:19;;;;;;;20.80;9.30;;;;;;;11.12;84.86;100611.72;105765;1272;22549;-63
2022/04/15 04:11:51;;;;;;;20.70;10.70;;;;;;;11.12;85.05;100612.12;105735;1272;25881;-63
2022/04/15 04:14:23;;;;;;;19.40;9.90;;;;;;;11.10;84.88;100606.14;106023;1272;22532;-63
2022/04/15 04:16:54;;;;;;;20.70;9.90;;;;;;;11.08;85.29;100605.63;105813;1271;22531;-64
2022/04/15 04:19:25;;;;;;;18.10;8.40;;;;;;;11.05;84.92;100602.62;105845;1271;25502;-62
2022/04/15 04:21:57;;;;;;;21.60;10.20;;;;;;;11.03;84.92;100597.39;105876;1272;24381;-64
2022/04/15 04:24:29;;;;;;;22.60;10.60;;;;;;;11.00;84.95;100601.63;105993;1271;24603;-65
2022/04/15 04:27:00;;;;;;;18.90;9.90;;;;;;;10.95;85.38;100600.35;105817;1271;22537;-63
2022/04/15 04:29:32;;;;;;;20.40;9.60;;;;;;;10.90;85.12;100601.90;105809;1272;26557;-62
2022/04/15 04:32:03;;;;;;;20.90;9.40;;;;;;;10.84;84.95;100601.62;105889;1271;22564;-64
2022/04/15 04:34:35;;;;;;;20.40;9.40;;;;;;;10.79;84.88;100604.39;105859;1272;24444;-64
2022/04/15 04:37:07;;;;;;;20.30;9.70;;;;;;;10.75;84.88;100602.05;105785;1271;24430;-63
2022/04/15 04:39:42;;;;;;;22.60;10.20;;;;;;;10.70;84.68;100600.92;105970;1272;22544;-64
2022/04/15 04:42:13;;;;;;;21.60;9.60;;;;;;;10.66;84.74;100601.04;106010;1271;22521;-63
2022/04/15 04:44:45;;;;;;;20.60;10.40;;;;;;;10.62;84.82;100599.77;105928;1272;22553;-64
2022/04/15 04:47:18;;;;;;;21.80;10.00;;;;;;;10.62;84.93;100600.33;105829;1271;22549;-64
2022/04/15 04:49:49;;;;;;;23.10;10.70;;;;;;;10.61;84.71;100602.47;105607;1271;22552;-64
2022/04/15 04:52:21;;;;;;;19.60;9.70;;;;;;;10.59;84.76;100613.62;105887;1271;24298;-64
2022/04/15 04:54:54;;;;;;;21.90;10.60;;;;;;;10.57;85.02;100620.52;105960;1273;24230;-63
2022/04/15 04:57:26;;;;;;;21.70;10.80;;;;;;;10.55;85.12;100625.73;105972;1272;22525;-63
2022/04/15 04:59:58;;;;;;;23.70;11.80;;;;;;;10.54;85.25;100630.63;105773;1271;23920;-63
2022/04/15 05:02:30;;;;;;;24.80;12.40;;;;;;;10.54;85.55;100632.42;105841;1273;25218;-64
2022/04/15 05:05:05;;;;;;;26.70;13.30;;;;;;;10.57;85.80;100636.55;105746;1272;22745;-64
2022/04/15 05:07:39;;;;;;;22.60;11.80;;;;;;;10.59;86.17;100639.15;106149;1271;22546;-64
2022/04/15 05:10:15;;;;;;;24.80;12.50;;;;;;;10.63;86.31;100641.37;105970;1271;25556;-62
2022/04/15 05:12:49;;;;;;;23.60;10.80;;;;;;;10.66;86.42;100644.50;106097;1271;22550;-64
2022/04/15 05:15:21;;;;;;;22.90;11.70;;;;;;;10.70;86.55;100646.10;105983;1272;22640;-63
2022/04/15 05:17:54;;;;;;;26.90;12.20;;;;;;;10.73;86.76;100651.31;105824;1271;22627;-62
2022/04/15 05:20:25;;;;;;;21.40;11.50;;;;;;;10.76;86.68;100649.25;105877;1271;22536;-62
2022/04/15 05:22:57;;;;;;;23.50;12.20;;;;;;;10.80;86.68;100651.59;105589;1271;22541;-62
2022/04/15 05:25:29;;;;;;;23.70;10.70;;;;;;;10.83;86.50;100652.66;105741;1271;22652;-62
2022/04/15 05:28:02;;;;;;;21.60;10.80;;;;;;;10.85;86.42;100653.03;105888;1271;22681;-64
2022/04/15 05:30:33;;;;;;;22.50;9.80;;;;;;;10.87;86.35;100651.01;107172;1271;24276;-63
2022/04/15 05:33:05;;;;;;;21.40;9.40;;;;;;;10.89;86.33;100652.77;105655;1271;24240;-63
2022/04/15 05:35:37;;;;;;;19.60;10.40;;;;;;;10.89;86.35;100657.45;105767;1271;24407;-63
2022/04/15 05:38:09;;;;;;;24.20;9.90;;;;;;;10.90;86.21;100657.08;105745;1271;25538;-64
2022/04/15 05:40:40;;;;;;;21.30;10.00;;;;;;;10.93;86.35;100659.59;105685;1271;25408;-64
2022/04/15 05:43:11;;;;;;;19.50;9.10;;;;;;;10.96;86.07;100666.06;105670;1271;25384;-64
2022/04/15 05:45:43;;;;;;;19.20;8.70;;;;;;;10.97;85.95;100664.09;106106;1271;24422;-64
2022/04/15 05:48:14;;;;;;;21.10;8.30;;;;;;;10.98;85.67;100665.74;105958;1271;25386;-64
2022/04/15 05:50:46;;;;;;;19.80;8.10;;;;;;;10.98;85.57;100672.90;105836;1272;25403;-63
2022/04/15 05:53:18;;;;;;;18.30;8.80;;;;;;;10.98;85.59;100670.83;105901;1271;22523;-62
2022/04/15 05:55:50;;;;;;;17.30;8.00;;;;;;;10.98;85.27;100672.76;105891;1272;24676;-64
2022/04/15 05:58:22;;;;;;;17.40;8.20;;;;;;;10.96;85.41;100675.05;105728;1271;22534;-64
2022/04/15 06:00:54;;;;;;;21.50;8.80;;;;;;;10.97;85.29;100672.41;105615;1272;24266;-62
2022/04/15 06:03:26;;;;;;;20.60;10.30;;;;;;;10.98;85.24;100666.29;106450;1271;22634;-63
2022/04/15 06:05:59;;;;;;;18.60;8.40;;;;;;;11.01;85.50;100668.20;105914;1271;22604;-64
2022/04/15 06:08:34;;;;;;;22.00;11.20;;;;;;;11.05;85.54;100671.91;106006;1271;22946;-64
2022/04/15 06:11:07;;;;;;;20.90;8.60;;;;;;;11.12;85.59;100669.53;105781;1272;22624;-64
2022/04/15 06:13:46;;;;;;;19.70;9.50;;;;;;;11.18;85.55;100673.60;105972;1271;24220;-64
2022/04/15 06:16:20;;;;;;;20.50;9.40;;;;;;;11.25;85.44;100670.23;105927;1271;25332;-62
2022/04/15 06:18:52;;;;;;;18.50;9.00;;;;;;;11.33;85.46;100671.45;105983;1272;22692;-62
2022/04/15 06:21:23;;;;;;;21.60;9.00;;;;;;;11.43;85.25;100670.46;105952;1271;24277;-62
2022/04/15 06:23:55;;;;;;;18.60;9.50;;;;;;;11.52;85.25;100672.88;105948;1271;22554;-63
2022/04/15 06:26:27;;;;;;;19.90;9.30;;;;;;;11.59;84.78;100675.89;105831;1271;25343;-64
2022/04/15 06:28:59;;;;;;;20.60;8.90;;;;;;;11.63;84.60;100681.61;106038;1271;22541;-63
2022/04/15 06:31:31;;;;;;;16.80;7.60;;;;;;;11.64;84.37;100681.55;105731;1271;25457;-61
2022/04/15 06:34:03;;;;;;;16.50;7.90;;;;;;;11.65;84.25;100685.66;105780;1271;22671;-62
2022/04/15 06:36:35;;;;;;;20.90;8.50;;;;;;;11.67;84.45;100683.40;105777;1271;25298;-63
2022/04/15 06:39:06;;;;;;;21.20;9.50;;;;;;;11.72;84.40;100685.54;105697;1271;22718;-62
2022/04/15 06:41:39;;;;;;;18.60;8.20;;;;;;;11.76;84.54;100681.30;105898;1271;24318;-63
2022/04/15 06:44:10;;;;;;;18.40;8.10;;;;;;;11.76;84.02;100686.17;105964;1271;24268;-62
2022/04/15 06:46:42;;;;;;;19.10;9.00;;;;;;;11.75;84.27;100687.80;105929;1271;26462;-64
2022/04/15 06:49:17;;;;;;;19.50;10.10;;;;;;;11.74;84.26;100688.02;105950;1272;22710;-65
2022/04/15 06:51:49;;;;;;;20.60;9.50;;;;;;;11.76;84.42;100695.54;105967;1271;24967;-62
2022/04/15 06:54:21;;;;;;;23.40;11.50;;;;;;;11.72;83.93;100689.91;105913;1271;22522;-61
2022/04/15 06:56:56;;;;;;;28.10;13.50;;;;;;;11.73;83.99;100690.80;105784;1271;22596;-63
2022/04/15 06:59:29;;;;;;;27.50;13.40;;;;;;;11.75;84.03;100688.21;105969;1271;22610;-62
2022/04/15 07:02:02;;;;;;;27.00;13.30;;;;;;;11.79;84.10;100689.27;106090;1271;22619;-64
2022/04/15 07:04:34;;;;;;;29.70;14.70;;;;;;;11.84;84.01;100685.66;105948;1271;22544;-62
2022/04/15 07:07:07;;;;;;;27.00;13.30;;;;;;;11.88;83.71;100683.10;105901;1273;22551;-61
2022/04/15 07:09:40;;;;;;;28.20;14.10;;;;;;;11.92;83.79;100685.01;105965;1271;26059;-63
2022/04/15 07:12:12;;;;;;;29.20;14.80;;;;;;;11.97;83.87;100683.80;105970;1272;22569;-62
2022/04/15 07:14:45;;;;;;;29.10;14.70;;;;;;;12.03;83.59;100679.80;106025;1271;22548;-62
2022/04/15 07:17:16;;;;;;;34.90;14.60;;;;;;;12.09;83.36;100676.85;105917;1271;22582;-61
2022/04/15 07:19:48;;;;;;;28.20;14.20;;;;;;;12.18;83.64;100673.59;106042;1271;25257;-63
2022/04/15 07:22:21;;;;;;;29.70;14.20;;;;;;;12.33;83.96;100677.36;105992;1271;24717;-61
2022/04/15 07:24:53;;;;;;;28.10;13.90;;;;;;;12.48;83.67;100680.89;106137;1271;22608;-63
2022/04/15 07:27:24;;;;;;;29.00;13.00;;;;;;;12.53;82.87;100684.46;106105;1271;25447;-62
2022/04/15 07:29:56;;;;;;;25.70;13.20;;;;;;;12.49;81.81;100687.04;105937;1271;22553;-62
2022/04/15 07:32:29;;;;;;;24.30;13.00;;;;;;;12.44;82.25;100681.29;105643;1271;22579;-62
2022/04/15 07:35:01;;;;;;;24.70;12.10;;;;;;;12.45;82.47;100677.18;105702;1271;24219;-63
2022/04/15 07:37:32;;;;;;;23.20;12.00;;;;;;;12.48;81.94;100681.45;105819;1271;22578;-62
2022/04/15 07:40:05;;;;;;;24.30;12.20;;;;;;;12.50;81.87;100681.73;105846;1271;22544;-62
2022/04/15 07:42:37;;;;;;;26.20;12.90;;;;;;;12.49;81.74;100685.48;106103;1271;27109;-62
2022/04/15 07:45:10;;;;;;;27.20;12.60;;;;;;;12.49;82.07;100684.38;106871;1271;22683;-63
2022/04/15 07:47:42;;;;;;;24.60;11.30;;;;;;;12.56;82.07;100688.54;106246;1271;22500;-61
2022/04/15 07:50:14;;;;;;;22.00;10.50;;;;;;;12.61;81.17;100689.95;105899;1271;24232;-62
2022/04/15 07:52:49;;;;;;;22.00;10.00;;;;;;;12.60;80.60;100693.70;106023;1271;25505;-62
2022/04/15 07:55:21;;;;;;;19.40;9.10;;;;;;;12.57;80.11;100692.16;105860;1271;25400;-62
2022/04/15 07:57:52;;;;;;;21.90;9.30;;;;;;;12.55;79.89;100698.24;105749;1271;22541;-62
2022/04/15 08:00:25;;;;;;;20.20;8.00;;;;;;;12.54;79.39;100697.66;105950;1271;24245;-62
2022/04/15 08:02:57;;;;;;;19.60;9.30;;;;;;;12.54;79.69;100693.91;106000;1271;25390;-63
2022/04/15 08:05:29;;;;;;;19.20;8.40;;;;;;;12.57;79.80;100695.63;105682;1271;22637;-62
2022/04/15 08:08:00;;;;;;;17.50;8.60;;;;;;;12.58;79.48;100694.84;105811;1271;26580;-62
2022/04/15 08:10:32;;;;;;;23.90;10.20;;;;;;;12.60;79.54;100691.77;105818;1271;24285;-63
2022/04/15 08:13:04;;;;;;;19.30;9.30;;;;;;;12.62;79.70;100689.31;105863;1271;24638;-67
2022/04/15 08:15:35;;;;;;;20.90;9.60;;;;;;;12.66;79.84;100684.76;105812;1271;24586;-63
2022/04/15 08:18:07;;;;;;;20.60;9.60;;;;;;;12.72;79.59;100685.88;105746;1271;24232;-64
2022/04/15 08:20:38;;;;;;;19.50;8.60;;;;;;;12.75;79.04;100690.77;105772;1271;24327;-62
2022/04/15 08:23:10;;;;;;;23.30;9.80;;;;;;;12.77;78.99;100696.19;105998;1271;26520;-63
2022/04/15 08:25:44;;;;;;;22.70;10.40;;;;;;;12.79;78.74;100701.21;105778;1271;22629;-62
2022/04/15 08:28:16;;;;;;;20.40;10.10;;;;;;;12.84;78.80;100701.65;105845;1271;25510;-61
2022/04/15 08:30:48;;;;;;;22.60;10.90;;;;;;;12.88;79.05;100704.04;105674;1271;24530;-61
2022/04/15 08:33:20;;;;;;;22.20;9.60;;;;;;;12.94;78.77;100704.74;105808;1271;24327;-61
2022/04/15 08:35:55;;;;;;;19.60;9.30;;;;;;;12.99;77.78;100706.90;105834;1271;22557;-61
2022/04/15 08:38:26;;;;;;;19.40;8.90;;;;;;;13.09;78.03;100697.56;105826;1270;25374;-61
2022/04/15 08:41:00;;;;;;;19.90;8.30;;;;;;;13.20;77.36;100690.36;105820;1271;22555;-62
2022/04/15 08:43:31;;;;;;;19.20;9.00;;;;;;;13.33;76.72;100687.20;105751;1271;24341;-61
2022/04/15 08:46:05;;;;;;;18.70;8.20;;;;;;;13.49;76.62;100685.58;105814;1271;24237;-62
2022/04/15 08:48:38;;;;;;;18.10;8.80;;;;;;;13.64;76.50;100688.14;105840;1274;26265;-61
2022/04/15 08:51:11;;;;;;;18.90;7.90;;;;;;;13.81;76.24;100692.95;105839;1272;22733;-61
2022/04/15 08:53:46;;;;;;;18.30;8.00;;;;;;;13.91;75.66;100687.42;105604;1274;22576;-62
2022/04/15 08:56:19;;;;;;;19.70;8.60;;;;;;;13.92;74.83;100691.65;105911;1274;22653;-62
2022/04/15 08:58:51;;;;;;;17.80;8.00;;;;;;;13.87;74.78;100693.23;105750;1274;22552;-62
2022/04/15 09:01:25;;;;;;;19.50;8.30;;;;;;;13.82;74.44;100689.91;105795;1274;24318;-63
2022/04/15 09:03:58;;;;;;;21.60;8.80;;;;;;;13.71;73.63;100694.47;105766;1274;24396;-63
2022/04/15 09:06:33;;;;;;;19.70;8.80;;;;;;;13.60;73.90;100695.84;106052;1271;25436;-62
2022/04/15 09:09:08;;;;;;;18.70;9.20;;;;;;;13.53;74.55;100698.17;105765;1272;22554;-61
2022/04/15 09:11:41;;;;;;;15.80;7.50;;;;;;;13.51;74.33;100697.14;105640;1274;22534;-62
2022/04/15 09:14:14;;;;;;;22.00;10.50;;;;;;;13.48;74.26;100696.23;105867;1274;22516;-62
2022/04/15 09:16:48;;;;;;;27.60;12.50;;;;;;;13.43;75.29;100693.92;105840;1275;22564;-62
2022/04/15 09:19:21;;;;;;;22.30;11.20;;;;;;;13.42;75.37;100695.37;105733;1273;25819;-62
2022/04/15 09:21:57;;;;;;;22.40;10.80;;;;;;;13.39;75.63;100695.94;105929;1274;24438;-62
2022/04/15 09:24:33;;;;;;;22.80;11.30;;;;;;;13.32;75.98;100703.08;106036;1272;26033;-63
2022/04/15 09:27:08;;;;;;;20.40;9.30;;;;;;;13.25;76.41;100707.71;105773;1273;22558;-63
2022/04/15 09:29:42;;;;;;;21.80;11.30;;;;;;;13.09;77.30;100717.65;105777;1272;22609;-59
2022/04/15 09:32:15;;;;;;;18.30;7.50;;;;;;;12.88;77.12;100720.27;106030;1271;22651;-64
2022/04/15 09:34:58;;;;;;;16.10;6.90;;;;;;;12.65;76.76;100723.18;105733;1274;24246;-66
2022/04/15 09:37:32;;;;;;;16.70;7.20;;;;;;;12.36;77.40;100717.42;105876;1271;26192;-65
2022/04/15 09:40:09;;;;;;;14.90;6.10;;;;;;;12.14;77.71;100715.79;105796;1273;25229;-62
2022/04/15 09:42:47;;;;;;;17.40;6.00;;;;;;;11.98;78.40;100719.52;105638;1274;22630;-63
2022/04/15 09:45:20;;;;;;;15.80;4.80;;;;;;;11.84;78.29;100719.02;105767;1271;25434;-62
2022/04/15 09:47:56;;;;;;;13.60;5.30;;;;;;;11.73;78.11;100723.04;105704;1271;22607;-62
2022/04/15 09:50:31;;;;;;;12.80;4.80;;;;;;;11.63;78.55;100727.14;105774;1271;22615;-62
2022/04/15 09:53:12;;;;;;;15.10;6.20;;;;;;;11.54;79.14;100729.20;105772;1271;24333;-62
2022/04/15 09:55:46;;;;;;;12.40;4.70;;;;;;;11.45;79.50;100727.77;105709;1271;25492;-62
2022/04/15 09:58:19;;;;;;;17.00;6.70;;;;;;;11.39;79.56;100729.77;105910;1271;25496;-63
2022/04/15 10:00:52;;;;;;;13.80;4.70;;;;;;;11.35;79.63;100728.98;105728;1271;22614;-63
2022/04/15 10:03:26;;;;;;;15.10;6.00;;;;;;;11.33;79.70;100728.45;105625;1271;25447;-63
2022/04/15 10:05:59;;;;;;;14.40;5.80;;;;;;;11.30;79.70;100727.18;105751;1275;25520;-64
2022/04/15 10:08:31;;;;;;;14.00;3.90;;;;;;;11.30;79.62;100722.61;105777;1271;22528;-62
2022/04/15 10:11:03;;;;;;;12.00;4.00;;;;;;;11.30;79.59;100723.26;105865;1271;22587;-62
2022/04/15 10:13:35;;;;;;;9.60;3.50;;;;;;;11.29;79.56;100728.23;106653;1271;22550;-64
2022/04/15 10:16:09;;;;;;;11.60;3.50;;;;;;;11.30;79.86;100731.87;105925;1271;22553;-63
2022/04/15 10:18:42;;;;;;;11.50;3.40;;;;;;;11.34;79.81;100728.34;105904;1271;22619;-64
2022/04/15 10:21:14;;;;;;;10.70;3.50;;;;;;;11.39;79.82;100726.66;105884;1271;24789;-63
2022/04/15 10:23:46;;;;;;;13.00;4.40;;;;;;;11.45;80.07;100734.34;105662;1271;22573;-65
2022/04/15 10:26:23;;;;;;;11.50;3.40;;;;;;;11.53;80.01;100731.88;105751;1271;22542;-65
2022/04/15 10:28:55;;;;;;;12.50;4.90;;;;;;;11.62;79.53;100729.14;105740;1271;22583;-64
2022/04/15 10:31:40;;;;;;;12.00;5.20;;;;;;;11.69;79.59;100730.64;105745;1271;22588;-65
2022/04/15 10:34:16;;;;;;;14.40;4.70;;;;;;;11.76;79.56;100729.02;105735;1271;22741;-65
2022/04/15 10:36:50;;;;;;;14.30;5.40;;;;;;;11.82;80.01;100727.36;105715;1271;22557;-65
2022/04/15 10:39:23;;;;;;;16.00;6.40;;;;;;;11.86;79.46;100730.36;105622;1271;22550;-63
2022/04/15 10:41:57;;;;;;;15.90;6.30;;;;;;;11.89;79.37;100735.00;105757;1271;22667;-64
2022/04/15 10:44:35;;;;;;;17.70;7.30;;;;;;;11.89;79.68;100734.34;101829;1271;5513461;-65
2022/04/15 10:47:31;;;;;;;17.50;6.80;;;;;;;11.92;79.69;100730.93;105948;1271;25606;-63
2022/04/15 10:50:04;;;;;;;14.10;6.50;;;;;;;11.95;79.91;100734.27;105572;1276;24325;-65
2022/04/15 10:52:37;;;;;;;12.80;4.80;;;;;;;11.98;80.03;100730.83;105423;1275;22672;-63
2022/04/15 10:55:13;;;;;;;17.10;7.00;;;;;;;11.99;79.62;100728.23;105497;1276;25416;-63
2022/04/15 10:57:46;;;;;;;16.90;6.10;;;;;;;11.99;79.75;100729.77;105607;1276;25663;-63
2022/04/15 11:03:22;;;;;;;17.10;6.60;;;;;;;12.03;79.70;100725.73;105390;1274;24269;-63
2022/04/15 11:05:59;;;;;;;15.50;6.70;;;;;;;12.03;79.33;100723.95;105513;1277;22573;-64
2022/04/15 11:08:45;;;;;;;16.90;7.30;;;;;;;12.06;79.71;100727.27;105517;1276;23113;-63
2022/04/15 11:11:18;;;;;;;17.40;6.80;;;;;;;12.11;79.89;100728.90;105477;1276;23147;-62
2022/04/15 11:14:04;;;;;;;14.70;5.10;;;;;;;12.15;78.23;100738.09;105422;1276;22627;-63
2022/04/15 11:16:48;;;;;;;15.30;5.70;;;;;;;12.18;77.45;100736.67;105552;1276;24255;-64
2022/04/15 11:19:26;;;;;;;14.90;5.10;;;;;;;12.19;76.22;100737.91;105371;1276;24245;-64
2022/04/15 11:21:58;;;;;;;11.50;3.80;;;;;;;12.21;76.19;100728.80;105403;1277;25457;-65
2022/04/15 11:24:32;;;;;;;9.40;3.40;;;;;;;12.28;75.98;100725.73;105873;1276;22579;-62
2022/04/15 11:27:06;;;;;;;11.90;3.20;;;;;;;12.34;75.62;100726.27;105465;1271;24400;-63
2022/04/15 11:29:41;;;;;;;13.30;3.70;;;;;;;12.38;75.62;100729.65;105800;1271;25515;-62
2022/04/15 11:32:12;;;;;;;10.60;2.80;;;;;;;12.38;75.42;100743.44;105887;1271;25480;-63
2022/04/15 11:34:44;;;;;;;12.40;2.90;;;;;;;12.27;74.23;100748.00;105916;1271;25981;-62
2022/04/15 11:37:17;;;;;;;9.60;2.60;;;;;;;12.09;73.44;100748.30;105981;1271;23941;-64